createdAt,value
2024-01-06T00:02:45.989Z,100018.09
2024-01-06T00:07:50.957Z,100012.08
2024-01-06T00:12:54.541Z,100007.52
2024-01-06T00:17:58.067Z,99988.04
2024-01-06T00:23:04.030Z,100001.88
2024-01-06T00:28:07.449Z,100010.01
2024-01-06T00:33:11.043Z,100013.25
2024-01-06T00:38:14.696Z,100012.47
2024-01-06T00:43:20.793Z,100011.82
2024-01-06T00:48:24.362Z,100009.52
2024-01-06T00:53:28.630Z,100010.06
2024-01-06T00:58:32.178Z,100019.28
2024-01-06T01:03:35.713Z,100020.83
2024-01-06T01:08:39.256Z,100023.94
2024-01-06T01:13:42.962Z,100029.94
2024-01-06T01:18:46.397Z,100028.08
2024-01-06T01:23:49.845Z,100022.23
2024-01-06T01:28:53.262Z,100031.06
2024-01-06T01:33:56.753Z,100029.64
2024-01-06T01:39:00.511Z,100029.23
2024-01-06T01:44:04.605Z,100030.39
2024-01-06T01:49:08.222Z,100032.10
2024-01-06T01:54:11.880Z,100028.63
2024-01-06T01:59:19.167Z,100026.55
2024-01-06T02:04:22.662Z,100032.63
2024-01-06T02:09:28.778Z,100032.68
2024-01-06T02:14:34.122Z,100039.76
2024-01-06T02:19:37.593Z,100038.07
2024-01-06T02:24:41.512Z,100038.96
2024-01-06T02:29:44.970Z,100042.08
2024-01-06T02:34:49.539Z,100052.48
2024-01-06T02:39:54.617Z,100050.14
2024-01-06T02:44:58.070Z,100055.23
2024-01-06T02:50:01.827Z,100051.80
2024-01-06T02:55:06.237Z,100050.67
2024-01-06T03:00:10.433Z,100050.70
2024-01-06T03:05:14.137Z,100048.45
2024-01-06T03:10:17.518Z,100048.80
2024-01-06T03:15:21.020Z,100049.48
2024-01-06T03:20:24.525Z,100054.91
2024-01-06T03:25:28.099Z,100058.44
2024-01-06T03:30:31.629Z,100061.17
2024-01-06T03:35:35.328Z,100063.86
2024-01-06T03:40:38.799Z,100073.47
2024-01-06T03:45:42.411Z,100070.13
2024-01-06T03:50:45.880Z,100072.06
2024-01-06T03:55:49.237Z,100068.65
2024-01-06T04:00:52.818Z,100071.11
2024-01-06T04:05:56.503Z,100074.65
2024-01-06T04:10:59.992Z,100073.25
2024-01-06T04:16:04.250Z,100074.92
2024-01-06T04:21:08.077Z,100081.77
2024-01-06T04:26:12.443Z,100087.44
2024-01-06T04:31:16.086Z,100086.33
2024-01-06T04:36:19.692Z,100087.30
2024-01-06T04:41:23.217Z,100087.98
2024-01-06T04:46:26.783Z,100086.97
2024-01-06T04:51:30.316Z,100086.34
2024-01-06T04:56:36.506Z,100088.05
2024-01-06T05:01:40.572Z,100086.46
2024-01-06T05:06:44.092Z,100090.97
2024-01-06T05:11:47.634Z,100090.54
2024-01-06T05:16:51.121Z,100093.84
2024-01-06T05:21:54.958Z,100099.23
2024-01-06T05:26:58.843Z,100102.78
2024-01-06T05:32:02.269Z,100109.56
2024-01-06T05:37:05.724Z,100117.86
2024-01-06T05:42:14.591Z,100121.06
2024-01-06T05:47:18.385Z,100115.79
2024-01-06T05:52:21.816Z,100119.13
2024-01-06T05:57:25.487Z,100126.79
2024-01-06T06:02:29.381Z,100132.21
2024-01-06T06:07:32.814Z,100147.06
2024-01-06T06:12:37.186Z,100149.10
2024-01-06T06:17:41.530Z,100152.33
2024-01-06T06:22:45.055Z,100166.38
2024-01-06T06:27:48.589Z,100173.33
2024-01-06T06:32:52.343Z,100176.63
2024-01-06T06:37:56.529Z,100185.78
2024-01-06T06:42:59.894Z,100192.88
2024-01-06T06:48:03.733Z,100194.59
2024-01-06T06:53:07.316Z,100198.98
2024-01-06T06:58:10.821Z,100209.29
2024-01-06T07:03:16.030Z,100217.58
2024-01-06T07:08:19.756Z,100219.77
2024-01-06T07:13:23.183Z,100222.41
2024-01-06T07:18:29.352Z,100222.20
2024-01-06T07:23:34.316Z,100225.42
2024-01-06T07:28:37.896Z,100230.95
2024-01-06T07:33:41.926Z,100232.97
2024-01-06T07:38:47.441Z,100236.42
2024-01-06T07:43:59.474Z,100239.09
2024-01-06T07:49:03.713Z,100230.86
2024-01-06T07:54:10.175Z,100235.02
2024-01-06T07:59:17.219Z,100230.30
2024-01-06T08:04:21.569Z,100230.04
2024-01-06T08:09:25.122Z,100230.32
2024-01-06T08:14:28.809Z,100236.61
2024-01-06T08:19:34.132Z,100234.80
2024-01-06T08:24:37.708Z,100243.25
2024-01-06T08:29:41.333Z,100255.55
2024-01-06T08:34:44.860Z,100261.48
2024-01-06T08:39:49.236Z,100270.98
2024-01-06T08:44:53.054Z,100283.82
2024-01-06T08:49:56.500Z,100284.77
2024-01-06T08:55:01.414Z,100292.63
2024-01-06T09:00:10.610Z,100303.02
2024-01-06T09:05:14.166Z,100315.54
2024-01-06T09:10:20.745Z,100319.52
2024-01-06T09:15:25.061Z,100327.07
2024-01-06T09:20:29.235Z,100330.16
2024-01-06T09:25:32.681Z,100326.80
2024-01-06T09:30:36.052Z,100330.63
2024-01-06T09:35:39.513Z,100339.19
2024-01-06T09:40:45.858Z,100350.98
2024-01-06T09:46:01.975Z,100359.67
2024-01-06T09:51:08.805Z,100368.82
2024-01-06T09:56:13.713Z,100376.73
2024-01-06T10:01:18.964Z,100376.35
2024-01-06T10:06:23.197Z,100382.13
2024-01-06T10:11:28.054Z,100385.20
2024-01-06T10:16:51.328Z,100388.27
2024-01-06T10:21:55.992Z,100395.94
2024-01-06T10:27:00.492Z,100396.54
2024-01-06T10:32:04.623Z,100393.44
2024-01-06T10:37:08.309Z,100402.44
2024-01-06T10:42:13.787Z,100408.18
2024-01-06T10:47:21.087Z,100406.60
2024-01-06T10:52:26.023Z,100397.89
2024-01-06T10:57:33.426Z,100400.77
2024-01-06T11:02:37.049Z,100406.63
2024-01-06T11:07:43.128Z,100411.43
2024-01-06T11:12:47.466Z,100411.45
2024-01-06T11:18:00.461Z,100411.45
2024-01-06T11:23:22.143Z,100406.84
2024-01-06T11:28:27.124Z,100403.02
2024-01-06T11:33:32.084Z,100392.52
2024-01-06T11:38:40.399Z,100387.08
2024-01-06T11:43:44.744Z,100381.55
2024-01-06T11:48:52.859Z,100383.29
2024-01-06T11:53:56.962Z,100390.53
2024-01-06T11:59:03.400Z,100383.80
2024-01-06T12:04:07.800Z,100380.60
2024-01-06T12:09:17.969Z,100379.61
2024-01-06T12:14:21.505Z,100386.17
2024-01-06T12:19:25.531Z,100398.65
2024-01-06T12:24:30.359Z,100397.45
2024-01-06T12:29:34.506Z,100405.21
2024-01-06T12:34:38.855Z,100412.62
2024-01-06T12:39:44.153Z,100419.88
2024-01-06T12:44:47.613Z,100422.88
2024-01-06T12:49:51.133Z,100421.70
2024-01-06T12:54:54.693Z,100423.72
2024-01-06T12:59:58.135Z,100421.14
2024-01-06T13:05:01.663Z,100416.59
2024-01-06T13:10:05.674Z,100413.50
2024-01-06T13:15:12.834Z,100415.78
2024-01-06T13:20:18.553Z,100424.28
2024-01-06T13:25:23.989Z,100422.52
2024-01-06T13:30:27.615Z,100430.23
2024-01-06T13:35:33.779Z,100438.66
2024-01-06T13:40:37.235Z,100444.09
2024-01-06T13:45:43.180Z,100448.59
2024-01-06T13:50:47.731Z,100449.42
2024-01-06T13:55:51.876Z,100452.64
2024-01-06T14:00:55.608Z,100457.19
2024-01-06T14:05:59.257Z,100464.64
2024-01-06T14:11:02.938Z,100473.41
2024-01-06T14:16:06.739Z,100477.19
2024-01-06T14:21:16.348Z,100480.80
2024-01-06T14:26:22.893Z,100488.86
2024-01-06T14:31:30.490Z,100494.40
2024-01-06T14:36:34.147Z,100494.06
2024-01-06T14:41:37.574Z,100500.57
2024-01-06T14:46:42.993Z,100504.84
2024-01-06T14:51:47.284Z,100505.13
2024-01-06T14:56:52.223Z,100508.40
2024-01-06T15:01:55.668Z,100519.67
2024-01-06T15:06:59.121Z,100526.11
2024-01-06T15:12:02.506Z,100526.23
2024-01-06T15:17:06.292Z,100528.27
2024-01-06T15:22:09.801Z,100543.20
2024-01-06T15:27:13.489Z,100547.95
2024-01-06T15:32:16.978Z,100557.52
2024-01-06T15:37:20.341Z,100567.23
2024-01-06T15:42:23.984Z,100567.02
2024-01-06T15:47:28.098Z,100577.29
2024-01-06T15:52:32.247Z,100579.81
2024-01-06T15:57:35.679Z,100589.16
2024-01-06T16:02:40.439Z,100591.86
2024-01-06T16:07:44.120Z,100584.45
2024-01-06T16:12:50.760Z,100584.35
2024-01-06T16:17:57.355Z,100588.96
2024-01-06T16:23:00.929Z,100593.55
2024-01-06T16:28:04.661Z,100603.20
2024-01-06T16:33:09.431Z,100608.63
2024-01-06T16:38:13.495Z,100608.86
2024-01-06T16:43:17.852Z,100616.41
2024-01-06T16:48:21.769Z,100617.16
2024-01-06T16:53:25.314Z,100615.84
2024-01-06T16:58:29.292Z,100625.45
2024-01-06T17:03:32.790Z,100630.48
2024-01-06T17:08:38.988Z,100636.55
2024-01-06T17:13:42.502Z,100647.54
2024-01-06T17:18:46.210Z,100658.66
2024-01-06T17:23:52.794Z,100664.73
2024-01-06T17:28:56.506Z,100673.08
2024-01-06T17:34:00.736Z,100675.96
2024-01-06T17:39:05.501Z,100681.33
2024-01-06T17:44:10.503Z,100690.42
2024-01-06T17:49:15.158Z,100699.15
2024-01-06T17:54:18.867Z,100705.06
2024-01-06T17:59:22.477Z,100714.25
2024-01-06T18:04:29.448Z,100721.21
2024-01-06T18:09:33.130Z,100713.92
2024-01-06T18:14:38.728Z,100721.56
2024-01-06T18:19:47.746Z,100723.67
2024-01-06T18:24:51.993Z,100731.82
2024-01-06T18:29:56.073Z,100734.27
2024-01-06T18:34:59.905Z,100733.15
2024-01-06T18:40:06.144Z,100731.65
2024-01-06T18:45:10.261Z,100736.69
2024-01-06T18:50:14.161Z,100740.05
2024-01-06T18:55:18.036Z,100738.73
2024-01-06T19:00:21.764Z,100740.98
2024-01-06T19:05:25.240Z,100748.14
2024-01-06T19:10:29.123Z,100760.25
2024-01-06T19:15:32.619Z,100758.73
2024-01-06T19:20:36.959Z,100761.71
2024-01-06T19:25:40.760Z,100763.86
2024-01-06T19:30:44.809Z,100761.88
2024-01-06T19:35:48.665Z,100760.04
2024-01-06T19:40:52.494Z,100755.68
2024-01-06T19:45:58.393Z,100762.70
2024-01-06T19:51:04.852Z,100761.96
2024-01-06T19:56:15.828Z,100772.46
2024-01-06T20:01:19.674Z,100766.15
2024-01-06T20:06:23.731Z,100768.27
2024-01-06T20:11:27.395Z,100778.59
2024-01-06T20:16:32.103Z,100774.90
2024-01-06T20:21:35.887Z,100776.84
2024-01-06T20:26:39.884Z,100777.05
2024-01-06T20:31:43.479Z,100777.83
2024-01-06T20:36:47.413Z,100784.21
2024-01-06T20:41:52.154Z,100782.36
2024-01-06T20:46:55.653Z,100791.02
2024-01-06T20:51:59.161Z,100788.85
2024-01-06T20:57:02.828Z,100794.40
2024-01-06T21:02:06.966Z,100798.63
2024-01-06T21:07:11.109Z,100806.48
2024-01-06T21:12:14.551Z,100807.80
2024-01-06T21:17:18.049Z,100805.20
2024-01-06T21:22:22.786Z,100802.79
2024-01-06T21:27:27.165Z,100804.43
2024-01-06T21:32:30.506Z,100800.55
2024-01-06T21:37:35.644Z,100805.93
2024-01-06T21:42:43.113Z,100803.86
2024-01-06T21:47:48.096Z,100808.36
2024-01-06T21:52:53.152Z,100811.29
2024-01-06T21:57:58.273Z,100810.33
2024-01-06T22:03:01.704Z,100808.77
2024-01-06T22:08:06.090Z,100804.48
2024-01-06T22:13:09.467Z,100798.35
2024-01-06T22:18:13.264Z,100803.05
2024-01-06T22:23:17.138Z,100809.85
2024-01-06T22:28:20.659Z,100812.42
2024-01-06T22:33:24.735Z,100816.31
2024-01-06T22:38:32.565Z,100819.30
2024-01-06T22:43:40.863Z,100826.81
2024-01-06T22:48:44.856Z,100831.42
2024-01-06T22:53:48.746Z,100838.87
2024-01-06T22:58:52.152Z,100841.56
2024-01-06T23:03:56.419Z,100842.16
2024-01-06T23:09:00.064Z,100844.98
2024-01-06T23:14:03.748Z,100847.07
2024-01-06T23:19:07.469Z,100845.34
2024-01-06T23:24:11.715Z,100849.94
2024-01-06T23:29:15.074Z,100852.09
2024-01-06T23:34:26.732Z,100855.12
2024-01-06T23:39:38.126Z,100864.16
2024-01-06T23:44:41.956Z,100867.64
2024-01-06T23:49:45.672Z,100868.80
2024-01-06T23:54:49.423Z,100874.56
2024-01-06T23:59:52.965Z,100873.64
